West Bend, WI

4:11 AM CST on February 14, 2016 (GMT -0600)
Prairie Meadow | | Change Station
CLOSE
Current Station
Personal Weather Station
Location: West Bend, WI
Elevation: 955 ft
Nearby Weather Stations

Elev 955 ft 43.39 °N, 88.15 °W | Updated 14 seconds ago

Clear
Clear
-5.3 °F
Feels Like -5 °F
N
0.0
Wind Variable Wind from West
Gusts 0.0 mph

Today
High -- | Low -- °F
--% Chance of Precip.
Yesterday
High -- | Low -- °F
Precip. -- in
Pressure 30.37 in
Visibility 10.0 miles
Clouds Clear
Windchill -5 °F
Dew Point -10 °F
Humidity 78%
Rainfall 0.00 in
Snow Depth Not available.
6:52 AM 5:21 PM
Waxing Crescent, 40% visible
METAR KETB 140950Z AUTO 00000KT 10SM CLR M21/M23 A3037 RMK AO2
Pressure 30.37 in
Visibility 10.0 miles
Clouds Clear
Windchill -5 °F
Dew Point -10 °F
Humidity 78%
Rainfall 0.00 in
Snow Depth Not available.
6:52 AM 5:21 PM
Waxing Crescent, 40% visible
METAR KETB 140950Z AUTO 00000KT 10SM CLR M21/M23 A3037 RMK AO2

10-Day Weather Forecast

Almanac

Astronomy

Feb. 14, 2016 Rise Set
Actual Time
Civil Twilight
Nautical Twilight
Astronomical Twilight
Moon
Length of Visible Light
Length of Day
Tomorrow will be .
, % of the Moon is Illuminated

Today's Extremes

State Highs State Lows

Community

WunderPhotos

Upload Photos

1,892,765 photos uploaded!

WunderBlog® & News

Nearby

Air Quality

  Air Quality AQ Index Pollutant
Not available.

Snow Depth

Station Depth Elevation

Earthquake Activity

City Distance Mag. Time & Date
Minimum magnitude displayed is 2.5.

Coastal Water Temperatures

Place Temperature

Stations

Nearby Weather Stations

Station Location Temp. Windchill Dew Point Humidity Wind Precip. Elev Updated Type
                   

Watches & Warnings

There are currently no watches in effect.